sensor_id;sensor_type;location;lat;lon;timestamp;pressure;altitude;pressure_sealevel;temperature;humidity
20897;BME280;10608;42.600;23.398;2022-11-23T00:00:17;53396.59;;;-138.15;92.20
20897;BME280;10608;42.600;23.398;2022-11-23T00:02:43;53388.69;;;-138.15;91.49
20897;BME280;10608;42.600;23.398;2022-11-23T00:05:09;53372.91;;;-138.15;92.21
20897;BME280;10608;42.600;23.398;2022-11-23T00:07:34;53384.75;;;-138.15;91.83
20897;BME280;10608;42.600;23.398;2022-11-23T00:10:00;53343.31;;;-138.15;91.35
20897;BME280;10608;42.600;23.398;2022-11-23T00:12:25;53382.78;;;-138.15;90.90
20897;BME280;10608;42.600;23.398;2022-11-23T00:14:51;53384.75;;;-138.15;90.58
20897;BME280;10608;42.600;23.398;2022-11-23T00:17:16;53368.97;;;-138.15;90.56
20897;BME280;10608;42.600;23.398;2022-11-23T00:19:41;53363.06;;;-138.15;90.87
20897;BME280;10608;42.600;23.398;2022-11-23T00:22:08;53410.41;;;-138.15;91.68
20897;BME280;10608;42.600;23.398;2022-11-23T00:24:33;53372.91;;;-138.15;93.45
20897;BME280;10608;42.600;23.398;2022-11-23T00:26:59;53333.47;;;-138.15;94.17
20897;BME280;10608;42.600;23.398;2022-11-23T00:29:24;53368.97;;;-138.15;97.84
20897;BME280;10608;42.600;23.398;2022-11-23T00:31:50;53384.75;;;-138.15;100.00
20897;BME280;10608;42.600;23.398;2022-11-23T00:34:15;53376.88;;;-138.15;100.00
20897;BME280;10608;42.600;23.398;2022-11-23T00:36:40;53374.91;;;-138.15;100.00
20897;BME280;10608;42.600;23.398;2022-11-23T00:39:06;53361.09;;;-138.15;100.00
20897;BME280;10608;42.600;23.398;2022-11-23T00:41:31;53367.00;;;-138.15;100.00
20897;BME280;10608;42.600;23.398;2022-11-23T00:43:57;53392.66;;;-138.15;100.00
20897;BME280;10608;42.600;23.398;2022-11-23T00:46:24;53376.88;;;-138.15;100.00
20897;BME280;10608;42.600;23.398;2022-11-23T00:48:52;53368.97;;;-138.15;100.00
20897;BME280;10608;42.600;23.398;2022-11-23T00:51:23;53388.69;;;-138.15;100.00
20897;BME280;10608;42.600;23.398;2022-11-23T00:53:49;53400.53;;;-138.15;100.00
20897;BME280;10608;42.600;23.398;2022-11-23T00:56:15;53400.53;;;-138.15;100.00
20897;BME280;10608;42.600;23.398;2022-11-23T00:58:46;53370.94;;;-138.15;100.00
20897;BME280;10608;42.600;23.398;2022-11-23T01:01:14;53412.38;;;-138.15;100.00
20897;BME280;10608;42.600;23.398;2022-11-23T01:03:46;53363.06;;;-138.15;100.00
20897;BME280;10608;42.600;23.398;2022-11-23T01:06:19;53394.63;;;-138.15;100.00
20897;BME280;10608;42.600;23.398;2022-11-23T01:08:56;53408.44;;;-138.15;100.00
20897;BME280;10608;42.600;23.398;2022-11-23T01:11:24;53374.91;;;-138.15;100.00
20897;BME280;10608;42.600;23.398;2022-11-23T01:13:50;53388.69;;;-138.15;100.00
20897;BME280;10608;42.600;23.398;2022-11-23T01:16:18;53374.91;;;-138.15;100.00
20897;BME280;10608;42.600;23.398;2022-11-23T01:18:44;53382.78;;;-138.15;100.00
20897;BME280;10608;42.600;23.398;2022-11-23T01:21:10;53372.91;;;-138.15;100.00
20897;BME280;10608;42.600;23.398;2022-11-23T01:23:35;53384.75;;;-138.15;100.00
20897;BME280;10608;42.600;23.398;2022-11-23T01:26:08;53392.66;;;-138.15;100.00
20897;BME280;10608;42.600;23.398;2022-11-23T01:28:35;53392.66;;;-138.15;100.00
20897;BME280;10608;42.600;23.398;2022-11-23T01:31:12;53388.69;;;-138.15;100.00
20897;BME280;10608;42.600;23.398;2022-11-23T01:33:38;53388.69;;;-138.15;100.00
20897;BME280;10608;42.600;23.398;2022-11-23T01:36:11;53357.13;;;-138.15;100.00
20897;BME280;10608;42.600;23.398;2022-11-23T01:38:37;53386.72;;;-138.15;100.00
20897;BME280;10608;42.600;23.398;2022-11-23T01:41:08;53394.63;;;-138.15;100.00
20897;BME280;10608;42.600;23.398;2022-11-23T01:43:35;53365.03;;;-138.15;100.00
20897;BME280;10608;42.600;23.398;2022-11-23T01:46:02;53370.94;;;-138.15;100.00
20897;BME280;10608;42.600;23.398;2022-11-23T01:48:48;53416.31;;;-138.15;100.00
20897;BME280;10608;42.600;23.398;2022-11-23T01:51:19;53327.53;;;-138.15;100.00
20897;BME280;10608;42.600;23.398;2022-11-23T01:53:47;53412.38;;;-138.15;100.00
20897;BME280;10608;42.600;23.398;2022-11-23T01:56:18;53376.88;;;-138.15;100.00
20897;BME280;10608;42.600;23.398;2022-11-23T01:58:46;53402.50;;;-138.15;100.00
20897;BME280;10608;42.600;23.398;2022-11-23T02:01:15;53390.69;;;-138.15;100.00
20897;BME280;10608;42.600;23.398;2022-11-23T02:03:42;53384.75;;;-138.15;100.00
20897;BME280;10608;42.600;23.398;2022-11-23T02:06:17;53388.69;;;-138.15;100.00
20897;BME280;10608;42.600;23.398;2022-11-23T02:08:43;53392.66;;;-138.15;100.00
20897;BME280;10608;42.600;23.398;2022-11-23T02:11:10;53380.81;;;-138.15;100.00
20897;BME280;10608;42.600;23.398;2022-11-23T02:13:37;53396.59;;;-138.15;100.00
20897;BME280;10608;42.600;23.398;2022-11-23T02:16:03;53367.00;;;-138.15;100.00
20897;BME280;10608;42.600;23.398;2022-11-23T02:18:30;53380.81;;;-138.15;100.00
20897;BME280;10608;42.600;23.398;2022-11-23T02:20:58;53380.81;;;-138.15;100.00
20897;BME280;10608;42.600;23.398;2022-11-23T02:26:20;53410.41;;;-138.15;100.00
20897;BME280;10608;42.600;23.398;2022-11-23T02:28:57;53422.25;;;-138.15;100.00
20897;BME280;10608;42.600;23.398;2022-11-23T02:31:24;53361.09;;;-138.15;100.00
20897;BME280;10608;42.600;23.398;2022-11-23T02:33:50;53402.50;;;-138.15;100.00
20897;BME280;10608;42.600;23.398;2022-11-23T02:39:04;53400.53;;;-138.15;100.00
20897;BME280;10608;42.600;23.398;2022-11-23T02:41:39;53398.56;;;-138.15;100.00
20897;BME280;10608;42.600;23.398;2022-11-23T02:44:21;53388.69;;;-138.15;100.00
20897;BME280;10608;42.600;23.398;2022-11-23T02:46:48;53390.69;;;-138.15;100.00
20897;BME280;10608;42.600;23.398;2022-11-23T02:49:14;53361.09;;;-138.15;100.00
20897;BME280;10608;42.600;23.398;2022-11-23T02:51:39;53414.34;;;-138.15;100.00
20897;BME280;10608;42.600;23.398;2022-11-23T02:54:05;53386.72;;;-138.15;100.00
20897;BME280;10608;42.600;23.398;2022-11-23T02:56:31;53372.91;;;-138.15;100.00
20897;BME280;10608;42.600;23.398;2022-11-23T02:58:56;53402.50;;;-138.15;100.00
20897;BME280;10608;42.600;23.398;2022-11-23T03:01:22;53384.75;;;-138.15;100.00
20897;BME280;10608;42.600;23.398;2022-11-23T03:03:47;53388.69;;;-138.15;100.00
20897;BME280;10608;42.600;23.398;2022-11-23T03:06:12;53412.38;;;-138.15;100.00
20897;BME280;10608;42.600;23.398;2022-11-23T03:08:38;53359.13;;;-138.15;100.00
20897;BME280;10608;42.600;23.398;2022-11-23T03:11:03;53372.91;;;-138.15;100.00
20897;BME280;10608;42.600;23.398;2022-11-23T03:13:29;53402.50;;;-138.15;100.00
20897;BME280;10608;42.600;23.398;2022-11-23T03:15:55;53368.97;;;-138.15;100.00
20897;BME280;10608;42.600;23.398;2022-11-23T03:18:21;53392.66;;;-138.15;100.00
20897;BME280;10608;42.600;23.398;2022-11-23T03:20:47;53368.97;;;-138.15;100.00
20897;BME280;10608;42.600;23.398;2022-11-23T03:23:12;53386.72;;;-138.15;100.00
20897;BME280;10608;42.600;23.398;2022-11-23T03:25:38;53384.75;;;-138.15;100.00
20897;BME280;10608;42.600;23.398;2022-11-23T03:28:03;53384.75;;;-138.15;100.00
20897;BME280;10608;42.600;23.398;2022-11-23T03:30:29;53374.91;;;-138.15;100.00
20897;BME280;10608;42.600;23.398;2022-11-23T03:32:56;53382.78;;;-138.15;100.00
20897;BME280;10608;42.600;23.398;2022-11-23T03:35:21;53416.31;;;-138.15;100.00
20897;BME280;10608;42.600;23.398;2022-11-23T03:37:46;53384.75;;;-138.15;100.00
20897;BME280;10608;42.600;23.398;2022-11-23T03:40:12;53412.38;;;-138.15;100.00
20897;BME280;10608;42.600;23.398;2022-11-23T03:42:40;53372.91;;;-138.15;100.00
20897;BME280;10608;42.600;23.398;2022-11-23T03:45:07;53392.66;;;-138.15;100.00
20897;BME280;10608;42.600;23.398;2022-11-23T03:47:33;53372.91;;;-138.15;100.00
20897;BME280;10608;42.600;23.398;2022-11-23T03:49:58;53376.88;;;-138.15;100.00
20897;BME280;10608;42.600;23.398;2022-11-23T03:52:24;53396.59;;;-138.15;100.00
20897;BME280;10608;42.600;23.398;2022-11-23T03:54:49;53438.03;;;-138.15;100.00
20897;BME280;10608;42.600;23.398;2022-11-23T03:57:15;53380.81;;;-138.15;100.00
20897;BME280;10608;42.600;23.398;2022-11-23T03:59:40;53441.97;;;-138.15;100.00
20897;BME280;10608;42.600;23.398;2022-11-23T04:02:06;53388.69;;;-138.15;100.00
20897;BME280;10608;42.600;23.398;2022-11-23T04:04:32;53388.69;;;-138.15;100.00
20897;BME280;10608;42.600;23.398;2022-11-23T04:06:58;53384.75;;;-138.15;100.00
20897;BME280;10608;42.600;23.398;2022-11-23T04:09:23;53400.53;;;-138.15;100.00
20897;BME280;10608;42.600;23.398;2022-11-23T04:11:49;53404.50;;;-138.15;100.00
20897;BME280;10608;42.600;23.398;2022-11-23T04:14:15;53384.75;;;-138.15;100.00
20897;BME280;10608;42.600;23.398;2022-11-23T04:16:40;53416.31;;;-138.15;100.00
20897;BME280;10608;42.600;23.398;2022-11-23T04:19:06;53388.69;;;-138.15;100.00
20897;BME280;10608;42.600;23.398;2022-11-23T04:21:31;53388.69;;;-138.15;100.00
20897;BME280;10608;42.600;23.398;2022-11-23T04:23:56;53396.59;;;-138.15;100.00
20897;BME280;10608;42.600;23.398;2022-11-23T04:26:22;53398.56;;;-138.15;100.00
20897;BME280;10608;42.600;23.398;2022-11-23T04:28:47;53420.28;;;-138.15;100.00
20897;BME280;10608;42.600;23.398;2022-11-23T04:31:13;53400.53;;;-138.15;100.00
20897;BME280;10608;42.600;23.398;2022-11-23T04:33:38;53408.44;;;-138.15;100.00
20897;BME280;10608;42.600;23.398;2022-11-23T04:36:04;53376.88;;;-138.15;100.00
20897;BME280;10608;42.600;23.398;2022-11-23T04:38:29;53392.66;;;-138.15;100.00
20897;BME280;10608;42.600;23.398;2022-11-23T04:40:55;53370.94;;;-138.15;100.00
20897;BME280;10608;42.600;23.398;2022-11-23T04:43:20;53418.28;;;-138.15;100.00
20897;BME280;10608;42.600;23.398;2022-11-23T04:45:46;53380.81;;;-138.15;100.00
20897;BME280;10608;42.600;23.398;2022-11-23T04:48:11;53378.84;;;-138.15;100.00
20897;BME280;10608;42.600;23.398;2022-11-23T04:50:37;53396.59;;;-138.15;100.00
20897;BME280;10608;42.600;23.398;2022-11-23T04:53:03;53390.69;;;-138.15;100.00
20897;BME280;10608;42.600;23.398;2022-11-23T04:55:29;53422.25;;;-138.15;100.00
20897;BME280;10608;42.600;23.398;2022-11-23T04:57:54;53406.47;;;-138.15;100.00
20897;BME280;10608;42.600;23.398;2022-11-23T05:00:20;53398.56;;;-138.15;100.00
20897;BME280;10608;42.600;23.398;2022-11-23T05:02:45;53357.13;;;-138.15;100.00
20897;BME280;10608;42.600;23.398;2022-11-23T05:05:11;53376.88;;;-138.15;100.00
20897;BME280;10608;42.600;23.398;2022-11-23T05:07:36;53337.41;;;-138.15;100.00
20897;BME280;10608;42.600;23.398;2022-11-23T05:10:02;53390.69;;;-138.15;100.00
20897;BME280;10608;42.600;23.398;2022-11-23T05:12:28;53410.41;;;-138.15;100.00
20897;BME280;10608;42.600;23.398;2022-11-23T05:14:53;53384.75;;;-138.15;100.00
20897;BME280;10608;42.600;23.398;2022-11-23T05:17:19;53412.38;;;-138.15;100.00
20897;BME280;10608;42.600;23.398;2022-11-23T05:19:44;53376.88;;;-138.15;100.00
20897;BME280;10608;42.600;23.398;2022-11-23T05:22:10;53374.91;;;-138.15;100.00
20897;BME280;10608;42.600;23.398;2022-11-23T05:24:35;53372.91;;;-138.15;100.00
20897;BME280;10608;42.600;23.398;2022-11-23T05:27:01;53392.66;;;-138.15;100.00
20897;BME280;10608;42.600;23.398;2022-11-23T05:29:26;53396.59;;;-138.15;100.00
20897;BME280;10608;42.600;23.398;2022-11-23T05:31:51;53372.91;;;-138.15;100.00
20897;BME280;10608;42.600;23.398;2022-11-23T05:34:17;53382.78;;;-138.15;100.00
20897;BME280;10608;42.600;23.398;2022-11-23T05:36:42;53386.72;;;-138.15;100.00
20897;BME280;10608;42.600;23.398;2022-11-23T05:39:08;53357.13;;;-138.15;100.00
20897;BME280;10608;42.600;23.398;2022-11-23T05:41:33;53402.50;;;-138.15;100.00
20897;BME280;10608;42.600;23.398;2022-11-23T05:43:58;53394.63;;;-138.15;100.00
20897;BME280;10608;42.600;23.398;2022-11-23T05:46:24;53386.72;;;-138.15;100.00
20897;BME280;10608;42.600;23.398;2022-11-23T05:48:49;53368.97;;;-138.15;100.00
20897;BME280;10608;42.600;23.398;2022-11-23T05:51:15;53406.47;;;-138.15;100.00
20897;BME280;10608;42.600;23.398;2022-11-23T05:53:40;53396.59;;;-138.15;100.00
20897;BME280;10608;42.600;23.398;2022-11-23T05:56:06;53390.69;;;-138.15;100.00
20897;BME280;10608;42.600;23.398;2022-11-23T05:58:31;53410.41;;;-138.15;100.00
20897;BME280;10608;42.600;23.398;2022-11-23T06:00:58;53388.69;;;-138.15;100.00
20897;BME280;10608;42.600;23.398;2022-11-23T06:03:24;53382.78;;;-138.15;100.00
20897;BME280;10608;42.600;23.398;2022-11-23T06:05:49;53406.47;;;-138.15;100.00
20897;BME280;10608;42.600;23.398;2022-11-23T06:08:15;53416.31;;;-138.15;100.00
20897;BME280;10608;42.600;23.398;2022-11-23T06:10:40;53400.53;;;-138.15;100.00
20897;BME280;10608;42.600;23.398;2022-11-23T06:13:05;53400.53;;;-138.15;100.00
20897;BME280;10608;42.600;23.398;2022-11-23T06:15:31;53368.97;;;-138.15;100.00
20897;BME280;10608;42.600;23.398;2022-11-23T06:18:00;53384.75;;;-138.15;100.00
20897;BME280;10608;42.600;23.398;2022-11-23T06:20:29;53390.69;;;-138.15;100.00
20897;BME280;10608;42.600;23.398;2022-11-23T06:22:55;53378.84;;;-138.15;100.00
20897;BME280;10608;42.600;23.398;2022-11-23T06:25:21;53400.53;;;-138.15;100.00
20897;BME280;10608;42.600;23.398;2022-11-23T06:27:57;53351.22;;;-138.15;100.00
20897;BME280;10608;42.600;23.398;2022-11-23T06:30:24;53361.09;;;-138.15;100.00
20897;BME280;10608;42.600;23.398;2022-11-23T06:32:50;53392.66;;;-138.15;100.00
20897;BME280;10608;42.600;23.398;2022-11-23T06:35:16;53376.88;;;-138.15;100.00
20897;BME280;10608;42.600;23.398;2022-11-23T06:37:42;53361.09;;;-138.15;100.00
20897;BME280;10608;42.600;23.398;2022-11-23T06:40:09;53384.75;;;-138.15;100.00
20897;BME280;10608;42.600;23.398;2022-11-23T06:42:35;53440.00;;;-138.15;100.00
20897;BME280;10608;42.600;23.398;2022-11-23T06:45:00;53400.53;;;-138.15;100.00
20897;BME280;10608;42.600;23.398;2022-11-23T06:47:27;53406.47;;;-138.15;100.00
20897;BME280;10608;42.600;23.398;2022-11-23T06:49:52;53335.44;;;-138.15;100.00
20897;BME280;10608;42.600;23.398;2022-11-23T06:52:18;53400.53;;;-138.15;100.00
20897;BME280;10608;42.600;23.398;2022-11-23T06:54:43;53361.09;;;-138.15;100.00
20897;BME280;10608;42.600;23.398;2022-11-23T06:57:09;53390.69;;;-138.15;100.00
20897;BME280;10608;42.600;23.398;2022-11-23T06:59:35;53341.34;;;-138.15;100.00
20897;BME280;10608;42.600;23.398;2022-11-23T07:02:00;53380.81;;;-138.15;100.00
20897;BME280;10608;42.600;23.398;2022-11-23T07:04:25;53349.25;;;-138.15;100.00
20897;BME280;10608;42.600;23.398;2022-11-23T07:06:51;53363.06;;;-138.15;100.00
20897;BME280;10608;42.600;23.398;2022-11-23T07:09:16;53380.81;;;-138.15;100.00
20897;BME280;10608;42.600;23.398;2022-11-23T07:11:42;53351.22;;;-138.15;100.00
20897;BME280;10608;42.600;23.398;2022-11-23T07:14:08;53400.53;;;-138.15;100.00
20897;BME280;10608;42.600;23.398;2022-11-23T07:16:33;53353.19;;;-138.15;100.00
20897;BME280;10608;42.600;23.398;2022-11-23T07:18:59;53376.88;;;-138.15;100.00
20897;BME280;10608;42.600;23.398;2022-11-23T07:21:24;53349.25;;;-138.15;100.00
20897;BME280;10608;42.600;23.398;2022-11-23T07:23:50;53398.56;;;-138.15;100.00
20897;BME280;10608;42.600;23.398;2022-11-23T07:26:15;53376.88;;;-138.15;100.00
20897;BME280;10608;42.600;23.398;2022-11-23T07:28:40;53361.09;;;-138.15;78.86
20897;BME280;10608;42.600;23.398;2022-11-23T07:31:06;53345.31;;;-138.15;71.66
20897;BME280;10608;42.600;23.398;2022-11-23T07:33:32;53388.69;;;-138.15;67.12
20897;BME280;10608;42.600;23.398;2022-11-23T07:36:00;53363.06;;;-138.15;65.48
20897;BME280;10608;42.600;23.398;2022-11-23T07:38:27;53333.47;;;-138.15;67.45
20897;BME280;10608;42.600;23.398;2022-11-23T07:40:52;53321.63;;;-138.15;65.93
20897;BME280;10608;42.600;23.398;2022-11-23T07:43:17;53367.00;;;-138.15;66.85
20897;BME280;10608;42.600;23.398;2022-11-23T07:45:43;53349.25;;;-138.15;64.86
20897;BME280;10608;42.600;23.398;2022-11-23T07:48:09;53317.69;;;-138.15;59.96
20897;BME280;10608;42.600;23.398;2022-11-23T07:50:36;53315.72;;;-138.15;57.20
20897;BME280;10608;42.600;23.398;2022-11-23T07:53:03;53323.59;;;-138.15;48.76
20897;BME280;10608;42.600;23.398;2022-11-23T07:55:28;53290.06;;;-138.15;42.50
20897;BME280;10608;42.600;23.398;2022-11-23T07:57:56;53282.19;;;-138.15;41.11
20897;BME280;10608;42.600;23.398;2022-11-23T08:00:23;53266.41;;;-138.15;37.77
20897;BME280;10608;42.600;23.398;2022-11-23T08:02:49;53264.41;;;-138.15;35.40
20897;BME280;10608;42.600;23.398;2022-11-23T08:05:15;53264.41;;;-138.15;37.33
20897;BME280;10608;42.600;23.398;2022-11-23T08:07:41;53313.75;;;-138.15;39.13
20897;BME280;10608;42.600;23.398;2022-11-23T08:10:07;53313.75;;;-138.15;37.15
20897;BME280;10608;42.600;23.398;2022-11-23T08:12:32;53272.31;;;-138.15;34.85
20897;BME280;10608;42.600;23.398;2022-11-23T08:14:58;53215.09;;;-138.15;34.04
20897;BME280;10608;42.600;23.398;2022-11-23T08:17:23;53270.34;;;-138.15;34.28
20897;BME280;10608;42.600;23.398;2022-11-23T08:19:49;53284.16;;;-138.15;36.89
20897;BME280;10608;42.600;23.398;2022-11-23T08:22:14;53286.13;;;-138.15;35.45
20897;BME280;10608;42.600;23.398;2022-11-23T08:24:39;53248.63;;;-138.15;33.56
20897;BME280;10608;42.600;23.398;2022-11-23T08:27:05;53258.50;;;-138.15;34.94
20897;BME280;10608;42.600;23.398;2022-11-23T08:29:30;53199.31;;;-138.15;33.02
20897;BME280;10608;42.600;23.398;2022-11-23T08:31:56;53254.56;;;-138.15;35.89
20897;BME280;10608;42.600;23.398;2022-11-23T08:34:21;53290.06;;;-138.15;39.21
20897;BME280;10608;42.600;23.398;2022-11-23T08:36:47;53327.53;;;-138.15;39.99
20897;BME280;10608;42.600;23.398;2022-11-23T08:39:13;53292.03;;;-138.15;41.58
20897;BME280;10608;42.600;23.398;2022-11-23T08:41:40;53311.75;;;-138.15;42.08
20897;BME280;10608;42.600;23.398;2022-11-23T08:44:05;53294.00;;;-138.15;45.39
20897;BME280;10608;42.600;23.398;2022-11-23T08:46:34;53321.63;;;-138.15;47.92
20897;BME280;10608;42.600;23.398;2022-11-23T09:00:34;53286.13;;;-138.15;41.86
20897;BME280;10608;42.600;23.398;2022-11-23T09:03:00;53272.31;;;-138.15;41.91
20897;BME280;10608;42.600;23.398;2022-11-23T09:05:27;53323.59;;;-138.15;43.70
20897;BME280;10608;42.600;23.398;2022-11-23T09:07:54;53294.00;;;-138.15;45.85
20897;BME280;10608;42.600;23.398;2022-11-23T09:10:19;53323.59;;;-138.15;47.62
20897;BME280;10608;42.600;23.398;2022-11-23T09:12:46;53321.63;;;-138.15;49.87
20897;BME280;10608;42.600;23.398;2022-11-23T09:15:12;53343.31;;;-138.15;50.44
20897;BME280;10608;42.600;23.398;2022-11-23T09:17:38;53282.19;;;-138.15;49.30
20897;BME280;10608;42.600;23.398;2022-11-23T09:20:04;53292.03;;;-138.15;47.60
20897;BME280;10608;42.600;23.398;2022-11-23T09:22:30;53309.78;;;-138.15;46.38
20897;BME280;10608;42.600;23.398;2022-11-23T09:24:55;53321.63;;;-138.15;45.91
20897;BME280;10608;42.600;23.398;2022-11-23T09:27:21;53329.53;;;-138.15;45.79
20897;BME280;10608;42.600;23.398;2022-11-23T09:29:46;53301.91;;;-138.15;45.61
20897;BME280;10608;42.600;23.398;2022-11-23T09:32:12;53284.16;;;-138.15;43.44
20897;BME280;10608;42.600;23.398;2022-11-23T09:34:37;53294.00;;;-138.15;37.87
20897;BME280;10608;42.600;23.398;2022-11-23T09:37:03;53301.91;;;-138.15;35.38
20897;BME280;10608;42.600;23.398;2022-11-23T09:39:28;53292.03;;;-138.15;39.70
20897;BME280;10608;42.600;23.398;2022-11-23T09:42:04;53262.44;;;-138.15;39.21
20897;BME280;10608;42.600;23.398;2022-11-23T09:50:39;53282.19;;;-138.15;43.47
20897;BME280;10608;42.600;23.398;2022-11-23T09:53:15;53290.06;;;-138.15;46.43
20897;BME280;10608;42.600;23.398;2022-11-23T09:55:43;53299.94;;;-138.15;49.57
20897;BME280;10608;42.600;23.398;2022-11-23T09:58:14;53297.97;;;-138.15;53.54
20897;BME280;10608;42.600;23.398;2022-11-23T10:00:47;53309.78;;;-138.15;53.80
20897;BME280;10608;42.600;23.398;2022-11-23T10:03:17;53327.53;;;-138.15;53.19
20897;BME280;10608;42.600;23.398;2022-11-23T10:05:49;53307.81;;;-138.15;55.50
20897;BME280;10608;42.600;23.398;2022-11-23T10:13:37;53351.22;;;-138.15;60.81
20897;BME280;10608;42.600;23.398;2022-11-23T10:19:04;53337.41;;;-138.15;61.55
20897;BME280;10608;42.600;23.398;2022-11-23T10:21:53;53347.28;;;-138.15;62.06
20897;BME280;10608;42.600;23.398;2022-11-23T10:24:31;53368.97;;;-138.15;61.15
20897;BME280;10608;42.600;23.398;2022-11-23T10:26:57;53337.41;;;-138.15;61.86
20897;BME280;10608;42.600;23.398;2022-11-23T10:29:27;53343.31;;;-138.15;60.84
20897;BME280;10608;42.600;23.398;2022-11-23T10:31:54;53365.03;;;-138.15;61.08
20897;BME280;10608;42.600;23.398;2022-11-23T10:34:50;53355.16;;;-138.15;59.68
20897;BME280;10608;42.600;23.398;2022-11-23T10:37:18;53363.06;;;-138.15;60.38
20897;BME280;10608;42.600;23.398;2022-11-23T10:55:50;53321.63;;;-138.15;53.39
20897;BME280;10608;42.600;23.398;2022-11-23T10:58:31;53337.41;;;-138.15;54.60
20897;BME280;10608;42.600;23.398;2022-11-23T11:01:06;53341.34;;;-138.15;56.14
20897;BME280;10608;42.600;23.398;2022-11-23T11:03:35;53337.41;;;-138.15;58.89
20897;BME280;10608;42.600;23.398;2022-11-23T11:06:01;53311.75;;;-138.15;59.74
20897;BME280;10608;42.600;23.398;2022-11-23T11:08:32;53357.13;;;-138.15;58.13
20897;BME280;10608;42.600;23.398;2022-11-23T11:11:21;53331.50;;;-138.15;55.77
20897;BME280;10608;42.600;23.398;2022-11-23T11:13:48;53355.16;;;-138.15;58.80
20897;BME280;10608;42.600;23.398;2022-11-23T11:18:56;53317.69;;;-138.15;53.58
20897;BME280;10608;42.600;23.398;2022-11-23T11:23:53;53357.13;;;-138.15;58.77
20897;BME280;10608;42.600;23.398;2022-11-23T11:26:24;53349.25;;;-138.15;57.29
20897;BME280;10608;42.600;23.398;2022-11-23T11:28:56;53357.13;;;-138.15;54.58
20897;BME280;10608;42.600;23.398;2022-11-23T11:34:29;53357.13;;;-138.15;55.31
20897;BME280;10608;42.600;23.398;2022-11-23T11:39:51;53317.69;;;-138.15;55.45
20897;BME280;10608;42.600;23.398;2022-11-23T11:42:33;53363.06;;;-138.15;56.59
20897;BME280;10608;42.600;23.398;2022-11-23T11:45:02;53357.13;;;-138.15;57.30
20897;BME280;10608;42.600;23.398;2022-11-23T11:47:35;53323.59;;;-138.15;58.91
20897;BME280;10608;42.600;23.398;2022-11-23T11:50:09;53345.31;;;-138.15;59.96
20897;BME280;10608;42.600;23.398;2022-11-23T11:52:42;53361.09;;;-138.15;60.29
20897;BME280;10608;42.600;23.398;2022-11-23T11:55:24;53355.16;;;-138.15;58.34
20897;BME280;10608;42.600;23.398;2022-11-23T11:58:11;53367.00;;;-138.15;61.99
20897;BME280;10608;42.600;23.398;2022-11-23T12:00:40;53327.53;;;-138.15;56.91
20897;BME280;10608;42.600;23.398;2022-11-23T12:06:12;53345.31;;;-138.15;55.57
20897;BME280;10608;42.600;23.398;2022-11-23T12:09:10;53329.53;;;-138.15;59.01
20897;BME280;10608;42.600;23.398;2022-11-23T12:11:37;53295.97;;;-138.15;61.07
20897;BME280;10608;42.600;23.398;2022-11-23T12:14:04;53357.13;;;-138.15;63.88
20897;BME280;10608;42.600;23.398;2022-11-23T12:19:42;53321.63;;;-138.15;60.14
20897;BME280;10608;42.600;23.398;2022-11-23T12:28:17;53361.09;;;-138.15;59.00
20897;BME280;10608;42.600;23.398;2022-11-23T12:36:22;53353.19;;;-138.15;51.62
20897;BME280;10608;42.600;23.398;2022-11-23T12:42:00;53321.63;;;-138.15;50.37
20897;BME280;10608;42.600;23.398;2022-11-23T12:49:45;53313.75;;;-138.15;49.51
20897;BME280;10608;42.600;23.398;2022-11-23T12:55:38;53372.91;;;-138.15;44.19
20897;BME280;10608;42.600;23.398;2022-11-23T12:58:29;53368.97;;;-138.15;42.57
20897;BME280;10608;42.600;23.398;2022-11-23T13:01:15;53325.56;;;-138.15;47.61
20897;BME280;10608;42.600;23.398;2022-11-23T13:14:38;53331.50;;;-138.15;45.39
20897;BME280;10608;42.600;23.398;2022-11-23T13:22:19;53286.13;;;-138.15;47.00
20897;BME280;10608;42.600;23.398;2022-11-23T13:25:18;53331.50;;;-138.15;43.38
20897;BME280;10608;42.600;23.398;2022-11-23T13:27:54;53343.31;;;-138.15;47.54
20897;BME280;10608;42.600;23.398;2022-11-23T13:30:36;53347.28;;;-138.15;49.26
20897;BME280;10608;42.600;23.398;2022-11-23T13:40:40;53335.44;;;-138.15;46.75
20897;BME280;10608;42.600;23.398;2022-11-23T13:43:38;53363.06;;;-138.15;46.55
20897;BME280;10608;42.600;23.398;2022-11-23T13:48:51;53357.13;;;-138.15;42.50
20897;BME280;10608;42.600;23.398;2022-11-23T13:51:33;53341.34;;;-138.15;41.81
20897;BME280;10608;42.600;23.398;2022-11-23T13:54:01;53303.88;;;-138.15;43.89
20897;BME280;10608;42.600;23.398;2022-11-23T13:56:42;53361.09;;;-138.15;43.25
20897;BME280;10608;42.600;23.398;2022-11-23T14:09:50;53294.00;;;-138.15;44.73
20897;BME280;10608;42.600;23.398;2022-11-23T14:15:15;53335.44;;;-138.15;43.21
20897;BME280;10608;42.600;23.398;2022-11-23T14:18:06;53321.63;;;-138.15;43.29
20897;BME280;10608;42.600;23.398;2022-11-23T14:26:50;53325.56;;;-138.15;43.61
20897;BME280;10608;42.600;23.398;2022-11-23T14:29:27;53341.34;;;-138.15;45.39
20897;BME280;10608;42.600;23.398;2022-11-23T14:32:22;53327.53;;;-138.15;46.34
20897;BME280;10608;42.600;23.398;2022-11-23T14:41:08;53331.50;;;-138.15;43.92
20897;BME280;10608;42.600;23.398;2022-11-23T14:43:40;53341.34;;;-138.15;45.61
20897;BME280;10608;42.600;23.398;2022-11-23T14:46:19;53343.31;;;-138.15;46.37
20897;BME280;10608;42.600;23.398;2022-11-23T14:48:46;53345.31;;;-138.15;47.42
20897;BME280;10608;42.600;23.398;2022-11-23T14:51:16;53337.41;;;-138.15;46.17